createdAt,value
2023-03-04T00:00:56.357Z,78.32
2023-03-04T00:03:24.246Z,78.71
2023-03-04T00:05:52.141Z,78.50
2023-03-04T00:08:19.862Z,78.47
2023-03-04T00:10:47.704Z,78.28
2023-03-04T00:13:15.477Z,78.40
2023-03-04T00:15:43.227Z,78.54
2023-03-04T00:18:10.921Z,78.58
2023-03-04T00:20:38.558Z,78.73
2023-03-04T00:23:06.229Z,78.55
2023-03-04T00:25:34.763Z,78.92
2023-03-04T00:28:02.609Z,78.67
2023-03-04T00:30:30.306Z,78.74
2023-03-04T00:32:58.119Z,78.64
2023-03-04T00:35:25.750Z,78.99
2023-03-04T00:37:53.495Z,78.89
2023-03-04T00:40:21.414Z,78.95
2023-03-04T00:42:49.101Z,78.98
2023-03-04T00:45:16.888Z,78.77
2023-03-04T00:47:44.556Z,78.86
2023-03-04T00:50:12.747Z,78.72
2023-03-04T00:52:40.438Z,78.98
2023-03-04T00:55:09.212Z,78.74
2023-03-04T00:57:36.978Z,78.90
2023-03-04T01:00:06.138Z,78.76
2023-03-04T01:02:33.848Z,78.90
2023-03-04T01:05:01.497Z,79.05
2023-03-04T01:07:29.174Z,78.96
2023-03-04T01:09:56.788Z,78.90
2023-03-04T01:12:24.462Z,78.74
2023-03-04T01:14:52.144Z,78.79
2023-03-04T01:17:19.891Z,79.09
2023-03-04T01:19:47.596Z,79.19
2023-03-04T01:22:16.315Z,79.65
2023-03-04T01:24:44.462Z,79.67
2023-03-04T01:27:12.354Z,79.57
2023-03-04T01:29:40.020Z,79.96
2023-03-04T01:32:07.795Z,79.57
2023-03-04T01:34:35.610Z,79.42
2023-03-04T01:37:03.482Z,79.51
2023-03-04T01:39:31.233Z,79.76
2023-03-04T01:41:59.351Z,79.77
2023-03-04T01:44:27.418Z,79.61
2023-03-04T01:46:56.773Z,79.78
2023-03-04T01:49:24.843Z,80.10
2023-03-04T01:51:55.694Z,80.32
2023-03-04T01:54:24.318Z,80.51
2023-03-04T01:56:53.462Z,79.79
2023-03-04T01:59:22.810Z,80.11
2023-03-04T02:02:01.588Z,80.31
2023-03-04T02:04:35.454Z,80.22
2023-03-04T02:07:04.893Z,81.16
2023-03-04T02:09:34.214Z,81.04
2023-03-04T02:12:02.444Z,81.21
2023-03-04T02:14:30.486Z,80.86
2023-03-04T02:16:58.360Z,81.20
2023-03-04T02:19:25.870Z,80.79
2023-03-04T02:21:53.704Z,80.71
2023-03-04T02:24:32.392Z,80.97
2023-03-04T02:27:00.662Z,81.22
2023-03-04T02:29:29.292Z,80.71
2023-03-04T02:31:57.297Z,80.60
2023-03-04T02:34:30.953Z,80.65
2023-03-04T02:36:58.899Z,81.43
2023-03-04T02:39:33.330Z,81.26
2023-03-04T02:42:02.775Z,81.35
2023-03-04T02:44:33.208Z,81.02
2023-03-04T02:47:01.049Z,81.39
2023-03-04T02:49:31.340Z,81.28
2023-03-04T02:52:07.151Z,81.02
2023-03-04T02:54:35.142Z,81.40
2023-03-04T02:57:05.108Z,81.47
2023-03-04T02:59:33.103Z,81.31
2023-03-04T03:02:01.020Z,81.22
2023-03-04T03:04:29.345Z,80.96
2023-03-04T03:06:57.202Z,81.12
2023-03-04T03:09:24.845Z,81.11
2023-03-04T03:11:52.610Z,81.22
2023-03-04T03:14:20.383Z,80.94
2023-03-04T03:16:48.030Z,80.93
2023-03-04T03:19:15.791Z,80.94
2023-03-04T03:21:43.512Z,80.96
2023-03-04T03:24:11.192Z,80.91
2023-03-04T03:26:40.983Z,80.65
2023-03-04T03:29:08.725Z,80.90
2023-03-04T03:31:36.460Z,80.93
2023-03-04T03:34:04.131Z,80.71
2023-03-04T03:36:32.038Z,80.83
2023-03-04T03:38:59.882Z,80.79
2023-03-04T03:41:27.534Z,80.88
2023-03-04T03:43:55.183Z,80.62
2023-03-04T03:46:22.806Z,80.57
2023-03-04T03:48:50.448Z,80.77
2023-03-04T03:51:18.112Z,80.85
2023-03-04T03:53:45.851Z,80.77
2023-03-04T03:56:13.556Z,80.60
2023-03-04T03:58:41.247Z,80.35
2023-03-04T04:01:10.323Z,80.55
2023-03-04T04:03:38.032Z,80.43
2023-03-04T04:06:05.824Z,80.48
2023-03-04T04:08:34.522Z,80.27
2023-03-04T04:11:02.193Z,80.32
2023-03-04T04:13:29.811Z,80.19
2023-03-04T04:15:57.473Z,80.65
2023-03-04T04:18:26.888Z,80.42
2023-03-04T04:20:54.942Z,80.34
2023-03-04T04:23:22.964Z,80.02
2023-03-04T04:25:50.734Z,80.39
2023-03-04T04:28:18.394Z,80.17
2023-03-04T04:30:46.091Z,80.54
2023-03-04T04:33:13.754Z,80.33
2023-03-04T04:35:41.460Z,80.32
2023-03-04T04:38:09.889Z,80.43
2023-03-04T04:40:38.211Z,80.67
2023-03-04T04:43:05.888Z,80.42
2023-03-04T04:45:33.657Z,80.39
2023-03-04T04:48:01.420Z,80.36
2023-03-04T04:50:32.550Z,80.32
2023-03-04T04:53:00.583Z,80.31
2023-03-04T04:55:28.934Z,80.57
2023-03-04T04:57:56.575Z,81.01
2023-03-04T05:00:24.200Z,81.44
2023-03-04T05:02:51.947Z,81.08
2023-03-04T05:05:19.649Z,81.25
2023-03-04T05:07:47.329Z,81.24
2023-03-04T05:10:15.052Z,81.35
2023-03-04T05:12:42.678Z,81.07
2023-03-04T05:15:10.630Z,81.35
2023-03-04T05:17:38.363Z,81.62
2023-03-04T05:20:08.254Z,81.84
2023-03-04T05:22:36.153Z,81.86
2023-03-04T05:25:04.656Z,82.50
2023-03-04T05:27:32.389Z,82.43
2023-03-04T05:30:03.166Z,82.18
2023-03-04T05:32:30.854Z,82.17
2023-03-04T05:34:58.567Z,83.25
2023-03-04T05:37:26.254Z,83.19
2023-03-04T05:39:53.871Z,84.91
2023-03-04T05:42:21.600Z,84.08
2023-03-04T05:44:49.314Z,84.41
2023-03-04T05:47:17.333Z,84.18
2023-03-04T05:49:45.721Z,84.59
2023-03-04T05:52:13.399Z,84.52
2023-03-04T05:54:41.073Z,84.92
2023-03-04T05:57:08.794Z,84.65
2023-03-04T05:59:36.580Z,86.42
2023-03-04T06:02:04.389Z,86.27
2023-03-04T06:04:32.253Z,85.53
2023-03-04T06:06:59.906Z,85.30
2023-03-04T06:09:27.613Z,85.50
2023-03-04T06:11:55.285Z,86.00
2023-03-04T06:14:23.098Z,85.38
2023-03-04T06:16:50.877Z,85.61
2023-03-04T06:19:18.684Z,86.27
2023-03-04T06:21:46.388Z,86.11
2023-03-04T06:24:14.283Z,87.87
2023-03-04T06:26:41.950Z,87.24
2023-03-04T06:29:09.657Z,86.74
2023-03-04T06:31:37.391Z,86.58
2023-03-04T06:34:05.125Z,86.74
2023-03-04T06:36:32.769Z,86.98
2023-03-04T06:39:00.444Z,88.19
2023-03-04T06:41:28.125Z,88.79
2023-03-04T06:43:56.039Z,88.31
2023-03-04T06:46:24.261Z,88.16
2023-03-04T06:48:52.033Z,88.65
2023-03-04T06:51:20.823Z,88.21
2023-03-04T06:53:48.555Z,87.82
2023-03-04T06:56:19.519Z,89.51
2023-03-04T06:58:47.588Z,90.70
2023-03-04T07:01:27.241Z,90.10
2023-03-04T07:03:56.273Z,90.68
2023-03-04T07:06:27.179Z,89.71
2023-03-04T07:08:55.883Z,89.34
2023-03-04T07:11:24.461Z,89.45
2023-03-04T07:13:52.696Z,89.25
2023-03-04T07:16:23.278Z,89.17
2023-03-04T07:18:51.498Z,90.01
2023-03-04T07:21:19.965Z,89.47
2023-03-04T07:23:48.053Z,89.31
2023-03-04T07:26:15.720Z,89.05
2023-03-04T07:28:44.500Z,89.09
2023-03-04T07:31:12.893Z,88.97
2023-03-04T07:33:40.590Z,89.10
2023-03-04T07:36:08.466Z,90.25
2023-03-04T07:38:36.247Z,90.17
2023-03-04T07:41:04.489Z,91.47
2023-03-04T07:43:32.220Z,91.71
2023-03-04T07:46:02.863Z,91.54
2023-03-04T07:48:30.762Z,90.93
2023-03-04T07:51:21.830Z,90.24
2023-03-04T07:53:55.390Z,90.51
2023-03-04T07:56:26.311Z,90.25
2023-03-04T07:58:57.449Z,89.93
2023-03-04T08:01:28.915Z,90.00
2023-03-04T08:03:56.781Z,90.03
2023-03-04T08:06:25.301Z,90.08
2023-03-04T08:09:01.241Z,89.82
2023-03-04T08:11:30.523Z,89.85
2023-03-04T08:13:58.401Z,90.09
2023-03-04T08:16:27.040Z,89.88
2023-03-04T08:18:57.295Z,89.88
2023-03-04T08:21:26.570Z,89.75
2023-03-04T08:23:55.044Z,89.80
2023-03-04T08:26:26.645Z,89.62
2023-03-04T08:28:55.819Z,89.37
2023-03-04T08:31:23.903Z,89.47
2023-03-04T08:33:52.432Z,89.37
2023-03-04T08:36:20.400Z,89.34
2023-03-04T08:38:48.154Z,89.18
2023-03-04T08:41:16.708Z,88.97
2023-03-04T08:43:45.108Z,88.92
2023-03-04T08:46:13.271Z,88.86
2023-03-04T08:48:41.019Z,88.86
2023-03-04T08:51:11.516Z,88.79
2023-03-04T08:53:39.910Z,88.55
2023-03-04T08:56:08.354Z,88.25
2023-03-04T08:58:36.293Z,88.22
2023-03-04T09:01:05.393Z,88.35
2023-03-04T09:03:33.258Z,88.08
2023-03-04T09:06:04.016Z,87.88
2023-03-04T09:08:32.606Z,87.77
2023-03-04T09:11:00.861Z,87.79
2023-03-04T09:13:30.642Z,87.61
2023-03-04T09:15:59.376Z,87.49
2023-03-04T09:18:28.078Z,87.36
2023-03-04T09:20:56.096Z,87.80
2023-03-04T09:23:24.044Z,87.39
2023-03-04T09:25:52.056Z,86.91
2023-03-04T09:28:20.821Z,87.01
2023-03-04T09:30:48.695Z,86.51
2023-03-04T09:33:16.415Z,86.63
2023-03-04T09:35:44.625Z,86.37
2023-03-04T09:38:12.320Z,86.36
2023-03-04T09:40:49.624Z,86.27
2023-03-04T09:43:31.247Z,85.37
2023-03-04T09:46:04.022Z,85.98
2023-03-04T09:48:45.952Z,85.15
2023-03-04T09:51:41.151Z,85.33
2023-03-04T09:54:28.880Z,85.18
2023-03-04T09:57:07.847Z,84.88
2023-03-04T09:59:48.266Z,84.63
2023-03-04T10:02:33.747Z,84.20
2023-03-04T10:05:06.987Z,84.36
2023-03-04T10:07:39.662Z,84.14
2023-03-04T10:10:17.925Z,84.21
2023-03-04T10:12:50.715Z,83.92
2023-03-04T10:15:24.528Z,83.66
2023-03-04T10:18:01.751Z,83.73
2023-03-04T10:20:45.267Z,83.52
2023-03-04T10:23:19.556Z,83.47
2023-03-04T10:25:48.051Z,83.17
2023-03-04T10:28:21.617Z,83.01
2023-03-04T10:31:13.106Z,82.66
2023-03-04T10:33:42.456Z,82.35
2023-03-04T10:36:22.786Z,82.14
2023-03-04T10:38:54.962Z,82.11
2023-03-04T10:41:27.158Z,82.09
2023-03-04T10:44:03.659Z,82.07
2023-03-04T10:46:32.936Z,81.78
2023-03-04T10:49:01.115Z,81.85
2023-03-04T10:51:30.617Z,81.74
2023-03-04T10:54:17.730Z,81.48
2023-03-04T10:56:57.103Z,81.26
2023-03-04T10:59:34.794Z,80.94
2023-03-04T11:02:15.340Z,81.06
2023-03-04T11:04:43.167Z,81.01
2023-03-04T11:07:12.182Z,80.88
2023-03-04T11:09:41.385Z,80.85
2023-03-04T11:12:17.946Z,80.71
2023-03-04T11:14:54.937Z,80.38
2023-03-04T11:17:41.785Z,80.50
2023-03-04T11:20:27.839Z,80.29
2023-03-04T11:22:57.995Z,80.37
2023-03-04T11:25:33.871Z,80.13
2023-03-04T11:28:08.402Z,79.97
2023-03-04T11:30:56.224Z,79.90
2023-03-04T11:33:37.272Z,79.71
2023-03-04T11:36:23.543Z,79.82
2023-03-04T11:38:52.988Z,79.44
2023-03-04T11:41:24.787Z,79.37
2023-03-04T11:43:52.626Z,79.25
2023-03-04T11:46:50.636Z,79.23
2023-03-04T11:49:33.551Z,78.85
2023-03-04T11:52:50.854Z,79.70
2023-03-04T11:55:44.233Z,79.95
2023-03-04T11:58:30.393Z,79.16
2023-03-04T12:01:16.325Z,77.73
2023-03-04T12:04:06.149Z,77.71
2023-03-04T12:06:45.208Z,76.63
2023-03-04T12:09:34.268Z,76.07
2023-03-04T12:12:28.209Z,75.71
2023-03-04T12:14:55.807Z,75.31
2023-03-04T12:17:36.335Z,74.49
2023-03-04T12:20:22.967Z,73.97
2023-03-04T12:23:12.886Z,73.46
2023-03-04T12:26:11.255Z,73.50
2023-03-04T12:28:41.682Z,72.47
2023-03-04T12:31:27.493Z,72.66
2023-03-04T12:34:10.040Z,72.28
2023-03-04T12:36:43.246Z,71.28
2023-03-04T12:39:20.418Z,71.48
2023-03-04T12:41:50.766Z,71.45
2023-03-04T12:44:20.338Z,70.77
2023-03-04T12:46:51.223Z,71.01
2023-03-04T12:49:35.833Z,70.12
2023-03-04T12:52:40.583Z,69.49
2023-03-04T12:55:18.419Z,68.81
2023-03-04T12:57:47.060Z,69.32
2023-03-04T13:00:48.081Z,68.07
2023-03-04T13:03:24.659Z,68.56
2023-03-04T13:06:05.224Z,67.91
2023-03-04T13:09:08.477Z,67.65
2023-03-04T13:12:07.512Z,67.08
2023-03-04T13:14:35.849Z,66.56
2023-03-04T13:17:39.888Z,66.88
2023-03-04T13:20:22.200Z,66.93
2023-03-04T13:22:59.905Z,66.08
2023-03-04T13:25:43.423Z,66.64
2023-03-04T13:28:11.045Z,67.00
2023-03-04T13:30:41.418Z,67.34
2023-03-04T13:33:12.212Z,67.52
2023-03-04T13:36:03.005Z,67.48
2023-03-04T13:38:35.422Z,67.69
2023-03-04T13:41:06.124Z,67.78
2023-03-04T13:43:41.134Z,67.46
2023-03-04T13:46:21.188Z,66.69
2023-03-04T13:48:51.800Z,65.23
2023-03-04T13:51:44.148Z,65.26
2023-03-04T13:54:16.988Z,63.72
2023-03-04T13:56:48.910Z,64.68
2023-03-04T13:59:43.282Z,65.27
2023-03-04T14:02:23.203Z,65.45
2023-03-04T14:05:02.356Z,66.17
2023-03-04T14:07:38.154Z,66.56
2023-03-04T14:10:24.358Z,66.87
2023-03-04T14:12:59.120Z,67.56
2023-03-04T14:15:31.756Z,68.18
2023-03-04T14:18:02.174Z,68.55
2023-03-04T14:20:35.159Z,69.05
2023-03-04T14:23:05.814Z,69.58
2023-03-04T14:25:36.926Z,70.22
2023-03-04T14:28:13.443Z,70.41
2023-03-04T14:30:52.501Z,70.80
2023-03-04T14:33:24.220Z,71.04
2023-03-04T14:35:54.924Z,71.24
2023-03-04T14:38:27.474Z,71.73
2023-03-04T14:41:04.246Z,71.95
2023-03-04T14:43:38.411Z,72.31
2023-03-04T14:46:13.509Z,72.51
2023-03-04T14:48:47.085Z,72.78
2023-03-04T14:51:37.401Z,72.89
2023-03-04T14:54:05.686Z,73.40
2023-03-04T14:56:36.711Z,73.25
2023-03-04T14:59:04.530Z,73.63
2023-03-04T15:01:36.777Z,73.71
2023-03-04T15:04:09.057Z,74.26
2023-03-04T15:06:40.706Z,74.18
2023-03-04T15:09:29.180Z,74.49
2023-03-04T15:12:07.540Z,74.71
2023-03-04T15:14:55.323Z,74.79
2023-03-04T15:17:33.964Z,74.90
2023-03-04T15:20:07.441Z,74.86
2023-03-04T15:22:36.822Z,74.89
2023-03-04T15:25:04.988Z,75.24
2023-03-04T15:27:32.809Z,74.96
2023-03-04T15:30:02.714Z,74.93
2023-03-04T15:32:31.043Z,75.12
2023-03-04T15:34:58.834Z,75.16
2023-03-04T15:37:29.867Z,75.14
2023-03-04T15:39:59.095Z,75.16
2023-03-04T15:42:26.944Z,75.05
2023-03-04T15:44:54.680Z,75.01
2023-03-04T15:47:22.373Z,75.12
2023-03-04T15:49:50.137Z,75.03
2023-03-04T15:52:22.502Z,75.01
2023-03-04T15:54:51.139Z,75.20
2023-03-04T15:57:25.981Z,75.34
2023-03-04T15:59:54.602Z,75.77
2023-03-04T16:02:25.028Z,75.88
2023-03-04T16:04:52.758Z,75.83
2023-03-04T16:07:30.836Z,75.95
2023-03-04T16:10:03.424Z,76.29
2023-03-04T16:12:31.463Z,76.49
2023-03-04T16:14:59.316Z,76.41
2023-03-04T16:17:27.076Z,76.60
2023-03-04T16:19:54.742Z,76.90
2023-03-04T16:22:30.386Z,76.89
2023-03-04T16:24:58.130Z,77.29
2023-03-04T16:27:27.735Z,77.31
2023-03-04T16:29:55.441Z,77.47
2023-03-04T16:32:23.221Z,77.44
2023-03-04T16:34:51.513Z,77.53
2023-03-04T16:37:21.412Z,77.69
2023-03-04T16:39:50.501Z,77.92
2023-03-04T16:42:23.089Z,78.01
2023-03-04T16:44:51.316Z,78.39
2023-03-04T16:47:19.123Z,78.54
2023-03-04T16:49:49.843Z,78.76
2023-03-04T16:52:33.138Z,78.95
2023-03-04T16:55:01.532Z,79.19
2023-03-04T16:57:29.789Z,79.37
2023-03-04T16:59:57.690Z,79.50
2023-03-04T17:02:29.084Z,79.42
2023-03-04T17:04:57.672Z,79.50
2023-03-04T17:07:25.399Z,79.50
2023-03-04T17:09:53.150Z,79.43
2023-03-04T17:12:20.893Z,79.42
2023-03-04T17:14:48.647Z,79.34
2023-03-04T17:17:18.387Z,79.31
2023-03-04T17:19:46.387Z,79.26
2023-03-04T17:22:14.181Z,79.32
2023-03-04T17:24:41.876Z,79.16
2023-03-04T17:27:09.852Z,79.17
2023-03-04T17:29:37.594Z,79.21
2023-03-04T17:32:05.614Z,79.02
2023-03-04T17:34:33.771Z,79.10
2023-03-04T17:37:01.535Z,78.75
2023-03-04T17:39:29.286Z,78.41
2023-03-04T17:41:57.824Z,78.19
2023-03-04T17:44:25.666Z,78.10
2023-03-04T17:46:53.427Z,77.97
2023-03-04T17:49:21.371Z,77.59
2023-03-04T17:51:49.282Z,76.91
2023-03-04T17:54:17.574Z,76.90
2023-03-04T17:56:45.626Z,76.81
2023-03-04T17:59:16.161Z,76.82
2023-03-04T18:01:46.218Z,76.70
2023-03-04T18:04:15.637Z,76.46
2023-03-04T18:06:44.438Z,76.20
2023-03-04T18:09:12.214Z,76.13
2023-03-04T18:11:41.656Z,75.99
2023-03-04T18:14:09.409Z,75.53
2023-03-04T18:16:37.143Z,75.75
2023-03-04T18:19:06.832Z,75.75
2023-03-04T18:21:34.636Z,75.65
2023-03-04T18:24:02.886Z,75.62
2023-03-04T18:26:30.843Z,74.99
2023-03-04T18:28:59.086Z,74.27
2023-03-04T18:31:31.702Z,73.89
2023-03-04T18:34:01.862Z,73.45
2023-03-04T18:36:30.688Z,73.16
2023-03-04T18:39:00.468Z,72.63
2023-03-04T18:41:28.489Z,72.25
2023-03-04T18:43:56.529Z,71.56
2023-03-04T18:46:43.830Z,70.97
2023-03-04T18:49:12.908Z,70.26
2023-03-04T18:51:40.706Z,71.04
2023-03-04T18:54:08.490Z,70.82
2023-03-04T18:56:49.944Z,69.66
2023-03-04T18:59:25.510Z,68.55
2023-03-04T19:01:54.267Z,69.76
2023-03-04T19:04:27.466Z,68.67
2023-03-04T19:06:55.495Z,68.51
2023-03-04T19:09:23.246Z,68.54
2023-03-04T19:11:50.939Z,68.60
2023-03-04T19:14:18.707Z,67.84
2023-03-04T19:16:46.423Z,67.20
2023-03-04T19:19:14.376Z,67.03
2023-03-04T19:21:43.018Z,66.28
2023-03-04T19:24:10.716Z,66.77
2023-03-04T19:26:38.417Z,67.19
2023-03-04T19:29:07.453Z,67.29
2023-03-04T19:31:35.342Z,67.12
2023-03-04T19:34:03.016Z,67.99
2023-03-04T19:36:31.749Z,67.34
2023-03-04T19:39:00.093Z,68.09
2023-03-04T19:41:28.161Z,68.11
2023-03-04T19:43:55.869Z,68.20
2023-03-04T19:46:23.658Z,68.26
2023-03-04T19:48:51.513Z,68.53
2023-03-04T19:51:22.005Z,68.62
2023-03-04T19:53:51.953Z,68.61
2023-03-04T19:56:21.277Z,68.89
2023-03-04T19:58:49.585Z,68.87
2023-03-04T20:01:31.178Z,68.50
2023-03-04T20:04:04.526Z,68.96
2023-03-04T20:06:32.745Z,68.92
2023-03-04T20:09:01.544Z,68.93
2023-03-04T20:11:30.465Z,68.75
2023-03-04T20:13:59.697Z,68.28
2023-03-04T20:16:28.280Z,68.73
2023-03-04T20:18:58.980Z,68.59
2023-03-04T20:21:33.112Z,68.62
2023-03-04T20:24:02.586Z,67.97
2023-03-04T20:26:31.307Z,68.48
2023-03-04T20:28:59.749Z,68.95
2023-03-04T20:31:30.804Z,68.88
2023-03-04T20:34:00.189Z,69.02
2023-03-04T20:36:30.068Z,69.14
2023-03-04T20:39:02.569Z,69.25
2023-03-04T20:41:32.245Z,69.24
2023-03-04T20:44:00.086Z,68.75
2023-03-04T20:46:35.858Z,69.35
2023-03-04T20:49:07.210Z,69.04
2023-03-04T20:51:35.944Z,68.86
2023-03-04T20:54:04.728Z,69.16
2023-03-04T20:56:32.760Z,69.21
2023-03-04T20:59:02.814Z,69.07
2023-03-04T21:01:32.153Z,69.08
2023-03-04T21:04:01.075Z,69.24
2023-03-04T21:06:32.210Z,69.29
2023-03-04T21:09:09.358Z,69.31
2023-03-04T21:11:41.658Z,69.26
2023-03-04T21:14:15.384Z,69.34
2023-03-04T21:16:44.220Z,69.06
2023-03-04T21:19:17.273Z,69.17
2023-03-04T21:21:46.118Z,69.22
2023-03-04T21:24:16.730Z,69.19
2023-03-04T21:26:46.398Z,68.85
2023-03-04T21:29:18.819Z,69.03
2023-03-04T21:31:52.882Z,68.46
2023-03-04T21:34:34.715Z,68.56
2023-03-04T21:37:03.433Z,68.77
2023-03-04T21:39:32.023Z,68.74
2023-03-04T21:42:00.886Z,68.32
2023-03-04T21:44:45.313Z,68.51
2023-03-04T21:47:16.121Z,68.19
2023-03-04T21:49:43.877Z,68.52
2023-03-04T21:52:11.579Z,67.97
2023-03-04T21:54:39.326Z,68.25
2023-03-04T21:57:06.991Z,68.47
2023-03-04T21:59:34.723Z,68.48
2023-03-04T22:02:03.053Z,68.60
2023-03-04T22:04:30.941Z,68.67
2023-03-04T22:06:58.647Z,68.68
2023-03-04T22:09:26.559Z,68.75
2023-03-04T22:11:54.268Z,68.79
2023-03-04T22:14:22.119Z,68.74
2023-03-04T22:16:55.818Z,68.86
2023-03-04T22:19:31.295Z,68.88
2023-03-04T22:22:00.200Z,68.72
2023-03-04T22:24:28.001Z,68.67
2023-03-04T22:26:57.921Z,68.72
2023-03-04T22:29:25.804Z,68.52
2023-03-04T22:31:53.484Z,68.74
2023-03-04T22:34:21.201Z,68.53
2023-03-04T22:36:50.369Z,68.79
2023-03-04T22:39:24.051Z,68.78
2023-03-04T22:41:51.832Z,68.54
2023-03-04T22:44:19.988Z,68.39
2023-03-04T22:46:47.730Z,68.39
2023-03-04T22:49:15.877Z,68.37
2023-03-04T22:51:45.399Z,68.45
2023-03-04T22:54:18.401Z,68.37
2023-03-04T22:56:46.622Z,68.54
2023-03-04T22:59:15.106Z,68.54
2023-03-04T23:01:43.053Z,68.51
2023-03-04T23:04:10.875Z,68.16
2023-03-04T23:06:38.795Z,68.00
2023-03-04T23:09:06.743Z,68.15
2023-03-04T23:11:39.937Z,68.12
2023-03-04T23:14:09.128Z,68.20
2023-03-04T23:16:42.071Z,67.88
2023-03-04T23:19:14.051Z,67.98
2023-03-04T23:21:42.422Z,67.61
2023-03-04T23:24:12.305Z,67.92
2023-03-04T23:26:41.650Z,67.59
2023-03-04T23:29:12.554Z,67.54
2023-03-04T23:31:40.296Z,67.53
2023-03-04T23:34:08.160Z,67.38
2023-03-04T23:36:37.357Z,67.38
2023-03-04T23:39:07.599Z,67.39
2023-03-04T23:41:36.650Z,67.38
2023-03-04T23:44:05.181Z,67.44
2023-03-04T23:46:32.987Z,67.44
2023-03-04T23:49:00.655Z,67.41
2023-03-04T23:51:30.347Z,67.23
2023-03-04T23:53:59.341Z,67.32
2023-03-04T23:56:30.170Z,67.43
2023-03-04T23:58:59.434Z,67.84
